Time;durP1;ratioP1;P1;durP2;ratioP2;P2;SDS_P1;SDS_P2;PMS_P1;PMS_P2;Temp;Humidity;BMP_temperature;BMP_pressure;BME280_temperature;BME280_humidity;BME280_pressure;Samples;Min_cycle;Max_cycle;Signal;HPM_P1;HPM_P2
2022/07/09 00:00:47;;;;;;;68.78;29.08;;;;;;;18.89;70.22;99735.84;4953454;29;20039;-86
2022/07/09 00:03:13;;;;;;;80.95;29.02;;;;;;;18.74;70.55;99714.47;4953325;29;20043;-85
2022/07/09 00:05:39;;;;;;;85.18;30.17;;;;;;;18.84;70.53;99738.06;4956869;28;20050;-89
2022/07/09 00:08:05;;;;;;;78.53;29.58;;;;;;;18.73;70.86;99718.44;4973478;28;20453;-85
2022/07/09 00:10:32;;;;;;;78.82;30.40;;;;;;;18.64;71.18;99713.06;4987546;28;20531;-85
2022/07/09 00:12:58;;;;;;;101.13;30.63;;;;;;;18.61;70.78;99724.84;4973624;28;20536;-85
2022/07/09 00:15:25;;;;;;;88.40;30.50;;;;;;;18.63;70.87;99719.72;4961949;28;20110;-85
2022/07/09 00:17:51;;;;;;;101.78;33.15;;;;;;;18.58;70.14;99708.94;4979746;28;20054;-85
2022/07/09 00:20:19;;;;;;;105.90;32.58;;;;;;;18.57;70.60;99720.34;4973514;28;20062;-91
2022/07/09 00:22:45;;;;;;;98.97;30.90;;;;;;;18.53;69.96;99707.22;4988492;28;20383;-85
2022/07/09 00:25:11;;;;;;;116.45;33.00;;;;;;;18.59;70.44;99715.28;4973720;28;20046;-90
2022/07/09 00:27:38;;;;;;;82.07;32.20;;;;;;;18.75;69.80;99741.03;4973781;28;20054;-85
2022/07/09 00:30:04;;;;;;;99.68;31.45;;;;;;;18.36;70.14;99674.38;4961438;28;20055;-84
2022/07/09 00:32:30;;;;;;;93.57;31.88;;;;;;;18.60;69.89;99716.88;4958157;29;20047;-84
2022/07/09 00:34:56;;;;;;;99.40;32.37;;;;;;;18.67;70.35;99728.13;4941656;29;20077;-86
2022/07/09 00:37:23;;;;;;;91.75;33.50;;;;;;;18.57;70.56;99723.94;4958140;29;20302;-85
2022/07/09 00:39:49;;;;;;;100.70;31.75;;;;;;;18.64;70.67;99731.63;4941140;29;20043;-86
2022/07/09 00:42:15;;;;;;;95.35;32.92;;;;;;;18.61;70.46;99740.63;4958602;29;20065;-92
2022/07/09 00:44:42;;;;;;;87.25;32.70;;;;;;;18.53;70.21;99718.31;4960796;28;20562;-90
2022/07/09 00:47:08;;;;;;;83.55;32.55;;;;;;;18.54;69.57;99711.63;4957937;29;20509;-86
2022/07/09 00:49:41;;;;;;;103.38;38.30;;;;;;;18.66;69.38;99712.69;4957372;29;20078;-86
2022/07/09 00:52:12;;;;;;;91.35;35.42;;;;;;;18.62;69.47;99709.81;4960926;28;20053;-86
2022/07/09 00:54:39;;;;;;;99.53;36.25;;;;;;;18.71;70.90;99737.34;4943745;28;20049;-87
2022/07/09 00:57:07;;;;;;;99.75;37.20;;;;;;;18.67;71.17;99728.13;4959968;28;20536;-86
2022/07/09 00:59:38;;;;;;;116.93;39.00;;;;;;;18.67;71.24;99733.66;4967596;28;20039;-86
2022/07/09 01:02:06;;;;;;;110.55;37.05;;;;;;;18.29;70.97;99685.25;4941970;29;20042;-84
2022/07/09 01:04:32;;;;;;;115.05;41.17;;;;;;;18.61;71.32;99729.56;4957139;28;20504;-85
2022/07/09 01:06:58;;;;;;;119.50;36.90;;;;;;;18.51;71.33;99717.06;4958821;28;20382;-89
2022/07/09 01:09:28;;;;;;;116.70;38.23;;;;;;;18.58;71.21;99722.00;4954581;29;20039;-88
2022/07/09 01:11:55;;;;;;;127.30;38.75;;;;;;;18.34;71.42;99684.97;4958319;29;20764;-85
2022/07/09 01:14:22;;;;;;;;;;;;;;;18.73;71.76;99748.88;4957431;29;20043;-86
2022/07/09 01:17:00;;;;;;;108.80;36.65;;;;;;;18.74;71.87;99744.94;4974885;28;19926;-84
2022/07/09 01:19:28;;;;;;;118.25;40.65;;;;;;;18.81;71.62;99747.94;4971243;28;20039;-85
2022/07/09 01:21:55;;;;;;;93.80;37.72;;;;;;;18.89;71.21;99748.91;4949204;29;20134;-88
2022/07/09 01:24:22;;;;;;;100.97;35.53;;;;;;;18.91;70.70;99746.59;4952975;28;20102;-93
2022/07/09 01:26:49;;;;;;;98.53;35.58;;;;;;;18.87;70.22;99717.97;4952987;29;20082;-86
2022/07/09 01:29:16;;;;;;;91.63;34.30;;;;;;;19.09;69.63;99749.78;4958123;28;20055;-94
2022/07/09 01:31:42;;;;;;;83.18;31.60;;;;;;;18.98;67.94;99719.84;4956233;29;20493;-85
2022/07/09 01:34:09;;;;;;;87.25;33.88;;;;;;;19.04;69.95;99722.31;4956918;29;20365;-88
2022/07/09 01:36:35;;;;;;;112.60;34.80;;;;;;;18.87;70.81;99682.75;4961949;28;20054;-86
2022/07/09 01:39:02;;;;;;;93.95;34.35;;;;;;;19.21;70.98;99727.50;4956619;29;20067;-86
2022/07/09 01:41:28;;;;;;;;;;;;;;;19.33;69.68;99743.19;4938465;29;20047;-88
2022/07/09 01:43:55;;;;;;;170.20;42.28;;;;;;;19.23;69.00;99725.16;4955860;29;19922;-85
2022/07/09 01:46:21;;;;;;;174.95;42.45;;;;;;;19.25;69.13;99729.19;4939351;29;20050;-86
2022/07/09 01:48:47;;;;;;;190.50;45.10;;;;;;;19.22;68.01;99726.31;4955152;29;20046;-86
2022/07/09 01:51:13;;;;;;;138.10;38.73;;;;;;;19.30;68.31;99750.25;4939193;29;20696;-93
2022/07/09 01:53:39;;;;;;;140.48;37.22;;;;;;;19.15;68.38;99715.09;4938837;29;20043;-86
2022/07/09 01:56:07;;;;;;;108.88;34.03;;;;;;;19.13;69.42;99711.84;4956194;29;20175;-90
2022/07/09 01:58:34;;;;;;;104.72;32.80;;;;;;;19.07;69.60;99707.75;4939101;29;20039;-87
2022/07/09 02:01:00;;;;;;;103.80;37.67;;;;;;;19.05;69.94;99705.34;4956417;29;20051;-86
2022/07/09 02:03:27;;;;;;;103.57;39.75;;;;;;;19.06;70.02;99711.69;4961157;28;20031;-86
2022/07/09 02:05:53;;;;;;;100.05;43.97;;;;;;;19.15;70.19;99728.94;4956050;28;20046;-84
2022/07/09 02:08:19;;;;;;;105.18;43.85;;;;;;;19.08;70.37;99709.38;4942976;29;20043;-86
2022/07/09 02:10:46;;;;;;;117.32;44.53;;;;;;;19.22;70.36;99738.22;4956129;29;20509;-95
2022/07/09 02:13:12;;;;;;;106.97;45.65;;;;;;;19.08;70.19;99715.72;4956120;29;20049;-88
2022/07/09 02:15:39;;;;;;;110.70;46.22;;;;;;;19.05;70.64;99705.34;4955890;28;20095;-86
2022/07/09 02:18:05;;;;;;;130.07;45.45;;;;;;;19.17;70.50;99712.72;4936619;29;20038;-85
2022/07/09 02:20:32;;;;;;;120.72;43.47;;;;;;;19.31;69.99;99734.44;4954850;29;20047;-86
2022/07/09 02:22:58;;;;;;;;;;;;;;;19.33;69.87;99729.34;4955686;29;20520;-86
2022/07/09 02:25:24;;;;;;;116.72;42.38;;;;;;;19.18;69.45;99717.13;4955192;29;19922;-93
2022/07/09 02:27:54;;;;;;;115.00;43.03;;;;;;;19.30;69.61;99735.59;4955811;28;20050;-92
2022/07/09 02:30:20;;;;;;;111.05;43.50;;;;;;;19.36;69.67;99745.25;4968892;28;20121;-86
2022/07/09 02:32:46;;;;;;;105.10;43.83;;;;;;;19.38;69.79;99742.94;4973706;28;20505;-86
2022/07/09 02:35:12;;;;;;;102.80;41.67;;;;;;;19.27;69.81;99723.28;4974060;28;20105;-93
2022/07/09 02:37:38;;;;;;;117.90;43.70;;;;;;;19.36;70.24;99726.63;4973328;28;20572;-86
2022/07/09 02:40:05;;;;;;;129.02;44.33;;;;;;;19.47;69.65;99740.75;4975014;28;20065;-86
2022/07/09 02:42:32;;;;;;;121.05;43.85;;;;;;;19.55;69.40;99738.94;4974634;28;20097;-87
2022/07/09 02:44:58;;;;;;;119.63;42.60;;;;;;;19.72;69.74;99755.19;4974420;28;20039;-89
2022/07/09 02:47:24;;;;;;;113.43;41.47;;;;;;;19.69;69.04;99730.94;4972978;28;20294;-88
2022/07/09 02:49:50;;;;;;;137.10;42.38;;;;;;;19.50;68.92;99706.72;4973855;28;20070;-86
2022/07/09 02:52:17;;;;;;;120.82;39.10;;;;;;;19.72;69.04;99744.09;4974356;28;20049;-87
2022/07/09 02:54:43;;;;;;;119.25;39.15;;;;;;;19.73;69.40;99755.97;4973950;28;20057;-86
2022/07/09 02:57:09;;;;;;;117.05;39.72;;;;;;;19.67;69.24;99738.84;4957171;28;20038;-87
2022/07/09 02:59:35;;;;;;;118.72;39.08;;;;;;;19.65;69.22;99727.31;4973306;28;20046;-88
2022/07/09 03:02:01;;;;;;;112.78;37.08;;;;;;;19.81;68.35;99758.56;4974371;28;20038;-86
2022/07/09 03:04:27;;;;;;;104.93;35.15;;;;;;;19.76;67.83;99744.97;4989659;28;20058;-86
2022/07/09 03:06:53;;;;;;;112.33;36.83;;;;;;;19.81;67.41;99753.00;4974434;28;20030;-94
2022/07/09 03:09:20;;;;;;;116.28;35.50;;;;;;;19.87;67.43;99759.09;4989250;28;20400;-88
2022/07/09 03:11:46;;;;;;;101.85;36.28;;;;;;;19.92;67.40;99756.78;4974530;28;20122;-87
2022/07/09 03:14:12;;;;;;;122.57;36.78;;;;;;;19.79;68.44;99744.22;4989483;28;20137;-86
2022/07/09 03:16:38;;;;;;;125.47;36.53;;;;;;;19.83;68.37;99747.88;4989198;28;20035;-86
2022/07/09 03:19:04;;;;;;;88.35;36.08;;;;;;;19.87;68.82;99753.53;4974133;28;20393;-87
2022/07/09 03:21:30;;;;;;;100.22;33.88;;;;;;;19.73;68.69;99739.34;4980972;28;20097;-86
2022/07/09 03:23:56;;;;;;;115.45;34.40;;;;;;;19.86;69.12;99774.09;4987284;28;20500;-86
2022/07/09 03:26:22;;;;;;;99.67;36.03;;;;;;;19.63;69.47;99749.00;4980617;28;20130;-95
2022/07/09 03:28:48;;;;;;;102.40;39.30;;;;;;;19.77;70.09;99785.44;4988944;28;20141;-94
2022/07/09 03:31:15;;;;;;;114.80;38.33;;;;;;;19.74;69.91;99777.81;4974839;28;20065;-94
2022/07/09 03:33:41;;;;;;;107.45;38.83;;;;;;;19.85;70.31;99769.72;4989243;28;20130;-90
2022/07/09 03:36:07;;;;;;;104.57;38.28;;;;;;;;;;4974576;28;20622;-94
2022/07/09 03:38:34;;;;;;;89.93;31.10;;;;;;;19.75;67.51;99706.50;4972880;28;20070;-85
2022/07/09 03:41:01;;;;;;;95.25;32.78;;;;;;;19.70;69.02;99693.72;4981170;28;20054;-96
2022/07/09 03:43:27;;;;;;;117.07;42.72;;;;;;;19.73;72.39;99725.47;4992126;28;20038;-86
2022/07/09 03:48:22;;;;;;;114.30;47.70;;;;;;;19.69;75.45;99728.16;4973955;28;20035;-84
2022/07/09 03:50:48;;;;;;;86.63;30.60;;;;;;;19.60;71.09;99691.50;4988623;28;20046;-89
2022/07/09 03:53:14;;;;;;;66.67;28.57;;;;;;;19.47;70.23;99677.00;4975702;28;20352;-85
2022/07/09 03:55:40;;;;;;;84.57;34.83;;;;;;;19.57;73.43;99700.53;4974908;28;20283;-85
2022/07/09 03:58:06;;;;;;;94.75;38.95;;;;;;;19.58;74.29;99700.19;4972233;28;20035;-91
2022/07/09 04:00:32;;;;;;;107.47;39.25;;;;;;;19.66;75.22;99712.25;4972150;28;20043;-85
2022/07/09 04:02:58;;;;;;;83.77;36.23;;;;;;;19.64;75.33;99695.19;4972595;28;20031;-84
2022/07/09 04:07:50;;;;;;;94.63;42.13;;;;;;;19.80;76.35;99709.78;4973640;28;20070;-85
2022/07/09 04:10:17;;;;;;;99.65;40.30;;;;;;;19.97;75.32;99716.03;4972510;28;20038;-93
2022/07/09 04:12:43;;;;;;;96.88;42.22;;;;;;;20.03;73.12;99717.34;4973271;28;20526;-84
2022/07/09 04:15:10;;;;;;;117.40;46.42;;;;;;;20.09;72.60;99710.34;4971511;28;20050;-85
2022/07/09 04:17:37;;;;;;;102.25;45.50;;;;;;;20.17;72.25;99726.78;4972024;28;20501;-85
2022/07/09 04:20:04;;;;;;;95.22;44.90;;;;;;;19.96;73.21;99698.59;4990106;28;20094;-86
2022/07/09 04:22:30;;;;;;;104.38;48.47;;;;;;;20.18;73.16;99727.56;4972860;28;20081;-85
2022/07/09 04:24:57;;;;;;;135.75;53.03;;;;;;;20.24;74.49;99737.22;4971940;28;20102;-91
2022/07/09 04:27:23;;;;;;;131.68;53.70;;;;;;;20.14;76.01;99721.97;4973436;28;20046;-85
2022/07/09 04:29:49;;;;;;;128.77;54.92;;;;;;;20.10;76.84;99714.75;4971513;28;20058;-86
2022/07/09 04:32:15;;;;;;;127.18;51.22;;;;;;;20.13;76.29;99719.53;4971755;28;20608;-94
2022/07/09 04:34:42;;;;;;;116.10;49.40;;;;;;;20.16;76.60;99718.81;4985926;28;20061;-85
2022/07/09 04:37:08;;;;;;;112.13;51.53;;;;;;;20.03;77.05;99704.28;4979466;28;20500;-86
2022/07/09 04:39:34;;;;;;;127.28;54.22;;;;;;;20.29;77.32;99741.66;4974734;28;20051;-94
2022/07/09 04:42:05;;;;;;;112.75;49.17;;;;;;;20.36;77.64;99759.25;4982442;28;20046;-83
2022/07/09 04:44:31;;;;;;;95.07;46.33;;;;;;;20.32;76.65;99750.03;4964871;28;20027;-83
2022/07/09 04:46:58;;;;;;;104.55;46.30;;;;;;;20.21;76.30;99723.25;4976707;28;20043;-82
2022/07/09 04:49:31;;;;;;;95.50;45.95;;;;;;;20.38;75.47;99736.66;4985735;28;20094;-83
2022/07/09 04:52:00;;;;;;;99.72;44.10;;;;;;;20.28;74.46;99707.53;4962661;28;20050;-83
2022/07/09 04:54:26;;;;;;;91.65;47.70;;;;;;;20.30;75.49;99691.31;4961856;28;20048;-91
2022/07/09 04:56:55;;;;;;;102.18;45.63;;;;;;;20.49;73.49;99700.75;4967939;28;20020;-84
2022/07/09 04:59:22;;;;;;;91.95;47.03;;;;;;;20.63;72.06;99721.28;4972187;28;20054;-84
2022/07/09 05:01:49;;;;;;;100.80;47.35;;;;;;;20.69;71.95;99724.53;4988869;28;20043;-84
2022/07/09 05:04:16;;;;;;;90.22;43.97;;;;;;;20.45;72.13;99692.34;4996297;28;20042;-84
2022/07/09 05:06:47;;;;;;;97.97;43.80;;;;;;;20.40;71.07;99679.59;4980365;28;20042;-84
2022/07/09 05:09:13;;;;;;;85.70;40.95;;;;;;;20.56;69.12;99706.47;4979325;28;20070;-95
2022/07/09 05:11:39;;;;;;;87.95;43.78;;;;;;;20.61;68.99;99712.50;4979561;28;20165;-85
2022/07/09 05:14:06;;;;;;;89.10;47.22;;;;;;;20.40;71.95;99676.81;4976155;28;20070;-93
2022/07/09 05:16:32;;;;;;;82.85;44.00;;;;;;;20.70;71.41;99706.72;4983365;28;20058;-85
2022/07/09 05:18:58;;;;;;;88.33;40.33;;;;;;;20.75;67.91;99689.72;4979154;28;20043;-85
2022/07/09 05:21:25;;;;;;;84.38;39.67;;;;;;;21.00;67.53;99711.56;4979321;28;20283;-85
2022/07/09 05:23:51;;;;;;;90.05;39.13;;;;;;;20.91;67.87;99672.09;4977791;28;20035;-95
2022/07/09 05:26:17;;;;;;;113.20;41.72;;;;;;;21.28;66.64;99700.84;4950588;28;20469;-86
2022/07/09 05:28:43;;;;;;;162.20;43.63;;;;;;;21.38;66.85;99704.97;4975780;28;20429;-85
2022/07/09 05:31:09;;;;;;;166.30;45.00;;;;;;;21.42;69.46;99696.69;4959252;28;20181;-85
2022/07/09 05:33:36;;;;;;;229.30;47.90;;;;;;;21.40;65.61;99679.59;4976862;28;20054;-85
2022/07/09 05:36:02;;;;;;;168.68;46.13;;;;;;;21.48;68.13;99687.63;4975681;28;20058;-85
2022/07/09 05:38:28;;;;;;;99.90;37.85;;;;;;;21.41;62.78;99670.06;4977033;28;20065;-87
2022/07/09 05:40:54;;;;;;;99.47;39.50;;;;;;;21.73;64.99;99712.22;4976304;28;20074;-89
2022/07/09 05:43:20;;;;;;;95.40;40.10;;;;;;;21.75;64.15;99690.34;4976539;28;20033;-84
2022/07/09 05:45:46;;;;;;;99.72;41.53;;;;;;;21.99;64.62;99692.63;4975169;28;20086;-95
2022/07/09 05:48:12;;;;;;;106.40;45.08;;;;;;;22.11;67.20;99691.56;4975632;28;20540;-86
2022/07/09 05:50:38;;;;;;;86.55;39.45;;;;;;;22.35;63.32;99706.16;4991486;28;20500;-84
2022/07/09 05:53:04;;;;;;;90.30;42.60;;;;;;;22.34;67.16;99688.63;4976141;28;20052;-96
2022/07/09 05:55:31;;;;;;;94.25;39.10;;;;;;;22.58;64.15;99698.41;4978185;28;20045;-87
2022/07/09 05:57:58;;;;;;;77.22;36.35;;;;;;;22.65;60.91;99697.66;4977054;28;20046;-96
2022/07/09 06:00:23;;;;;;;;;;;;;;;22.77;60.72;99697.38;4977177;28;20042;-90
2022/07/09 06:02:50;;;;;;;81.45;36.67;;;;;;;22.70;61.09;99692.53;4973639;28;19922;-84
2022/07/09 06:05:19;;;;;;;117.32;40.03;;;;;;;22.73;61.21;99707.69;4976140;28;20114;-95
2022/07/09 06:07:48;;;;;;;79.53;28.33;;;;;;;22.59;60.10;99671.34;4975371;28;20093;-85
2022/07/09 06:10:17;;;;;;;93.82;28.50;;;;;;;22.77;59.39;99693.78;4991694;28;20129;-83
2022/07/09 06:12:43;;;;;;;101.68;31.15;;;;;;;22.79;59.60;99697.00;4972118;28;20054;-85
2022/07/09 06:15:10;;;;;;;50.08;23.30;;;;;;;22.88;58.83;99700.22;4970429;28;20046;-83
2022/07/09 06:17:37;;;;;;;50.03;22.10;;;;;;;22.97;60.09;99703.53;4966034;28;20046;-84
2022/07/09 06:20:06;;;;;;;42.38;19.05;;;;;;;22.91;59.31;99688.31;4961480;28;20038;-91
2022/07/09 06:22:32;;;;;;;44.47;19.95;;;;;;;22.91;58.14;99689.13;4975086;28;20108;-88
2022/07/09 06:24:58;;;;;;;54.65;23.10;;;;;;;22.91;60.83;99677.97;4975044;28;20043;-84
2022/07/09 06:27:25;;;;;;;47.25;22.15;;;;;;;22.88;59.32;99669.56;4974103;28;20101;-91
2022/07/09 06:29:51;;;;;;;78.25;19.90;;;;;;;22.71;58.08;99662.69;4961398;28;20059;-83
2022/07/09 06:32:17;;;;;;;65.72;20.92;;;;;;;23.00;57.14;99688.00;4955281;29;20051;-83
2022/07/09 06:34:43;;;;;;;43.38;18.23;;;;;;;23.04;58.36;99674.91;4954898;29;20513;-82
2022/07/09 06:37:09;;;;;;;42.40;19.05;;;;;;;23.37;57.71;99685.84;4938314;29;20122;-83
2022/07/09 06:39:44;;;;;;;51.55;23.42;;;;;;;23.43;58.33;99650.00;4955365;29;20050;-83
2022/07/09 06:42:12;;;;;;;46.70;22.50;;;;;;;23.81;56.68;99686.88;4955428;29;20070;-84
2022/07/09 06:44:44;;;;;;;51.03;22.48;;;;;;;23.74;55.33;99672.88;4955507;29;20062;-83
2022/07/09 06:47:11;;;;;;;;;;;;;;;23.85;57.68;99682.09;4956169;29;20442;-89
2022/07/09 06:49:37;;;;;;;40.97;21.85;;;;;;;23.85;57.83;99680.13;4955612;29;19926;-83
2022/07/09 06:52:03;;;;;;;;;;;;;;;23.96;57.07;99674.56;4956304;29;20401;-91
2022/07/09 06:54:30;;;;;;;56.55;22.23;;;;;;;23.96;55.64;99676.56;4955345;29;19922;-83
2022/07/09 06:56:56;;;;;;;56.83;22.38;;;;;;;23.74;57.02;99639.38;4938325;29;20070;-83
2022/07/09 06:59:25;;;;;;;76.07;21.77;;;;;;;23.90;58.12;99665.75;4953929;29;20054;-83
2022/07/09 07:01:51;;;;;;;52.47;21.17;;;;;;;24.02;57.75;99683.34;4938619;29;20142;-83
2022/07/09 07:04:19;;;;;;;56.17;21.30;;;;;;;23.88;59.82;99659.00;4935491;29;20471;-83
2022/07/09 07:06:48;;;;;;;54.80;21.92;;;;;;;23.89;57.04;99677.31;4949045;29;20039;-84
2022/07/09 07:09:22;;;;;;;47.00;22.52;;;;;;;23.71;58.96;99642.97;4955570;29;20046;-82
2022/07/09 07:11:49;;;;;;;49.53;21.90;;;;;;;23.73;57.50;99638.59;4940234;28;20428;-84
2022/07/09 07:14:16;;;;;;;83.13;25.55;;;;;;;23.68;57.10;99630.59;4933053;29;20039;-83
2022/07/09 07:16:43;;;;;;;88.13;26.48;;;;;;;23.73;56.91;99660.13;4956480;29;20094;-83
2022/07/09 07:19:10;;;;;;;98.80;27.15;;;;;;;23.48;58.27;99637.66;4955315;29;20125;-84
2022/07/09 07:21:39;;;;;;;;;;;;;;;23.57;58.78;99663.22;4957094;29;20129;-83
2022/07/09 07:24:06;;;;;;;93.25;25.58;;;;;;;23.39;59.25;99646.41;4937727;29;19922;-84
2022/07/09 07:26:33;;;;;;;97.30;24.42;;;;;;;23.43;60.37;99647.22;4957197;29;20101;-86
2022/07/09 07:29:00;;;;;;;85.43;24.15;;;;;;;23.52;59.05;99667.19;4955836;28;20047;-85
2022/07/09 07:31:26;;;;;;;110.03;25.58;;;;;;;23.48;58.52;99646.84;4955318;29;20118;-84
2022/07/09 07:33:53;;;;;;;92.05;27.90;;;;;;;23.45;57.49;99644.84;4954795;29;20182;-83
2022/07/09 07:36:20;;;;;;;74.30;28.73;;;;;;;23.39;55.39;99636.03;4955550;29;20180;-83
2022/07/09 07:38:46;;;;;;;66.47;23.73;;;;;;;23.62;55.36;99662.84;4966772;28;20040;-82
2022/07/09 07:41:13;;;;;;;62.45;21.30;;;;;;;23.60;58.31;99660.44;4968514;28;20035;-82
2022/07/09 07:43:40;;;;;;;51.60;22.08;;;;;;;23.56;56.29;99670.78;4970897;29;20019;-82
2022/07/09 07:46:08;;;;;;;54.30;21.40;;;;;;;23.59;60.55;99672.81;4954587;29;20062;-82
2022/07/09 07:48:36;;;;;;;36.05;17.77;;;;;;;23.62;61.06;99694.34;4938748;29;20048;-83
2022/07/09 07:51:04;;;;;;;42.20;17.67;;;;;;;23.47;63.16;99681.50;4959541;29;20039;-83
2022/07/09 07:53:31;;;;;;;40.45;17.23;;;;;;;23.48;60.53;99699.03;4957680;28;20035;-83
2022/07/09 07:55:57;;;;;;;41.92;16.95;;;;;;;23.54;60.31;99709.47;4958979;28;22378;-83
2022/07/09 07:58:23;;;;;;;36.45;16.95;;;;;;;23.50;60.71;99702.25;4971855;28;20073;-81
2022/07/09 08:00:50;;;;;;;30.30;16.48;;;;;;;23.62;61.75;99721.47;4950056;28;20039;-83
2022/07/09 08:03:16;;;;;;;30.42;17.02;;;;;;;23.51;64.29;99699.09;4968195;28;20117;-83
2022/07/09 08:05:42;;;;;;;33.85;17.40;;;;;;;23.59;62.51;99695.13;4929242;29;20050;-82
2022/07/09 08:08:08;;;;;;;33.80;16.83;;;;;;;23.66;61.90;99705.53;4957121;29;20047;-83
2022/07/09 08:10:39;;;;;;;29.88;16.63;;;;;;;23.57;62.06;99674.38;4940057;29;20502;-84
2022/07/09 08:13:06;;;;;;;34.75;16.48;;;;;;;23.67;60.26;99696.78;4961514;29;20497;-84
2022/07/09 08:15:32;;;;;;;33.67;16.30;;;;;;;23.80;60.21;99724.34;4954266;29;20130;-83
2022/07/09 08:17:58;;;;;;;33.03;17.33;;;;;;;23.74;60.42;99721.16;4958093;28;20047;-83
2022/07/09 08:20:25;;;;;;;35.15;16.50;;;;;;;23.72;59.67;99722.75;4965286;28;20039;-85
2022/07/09 08:22:52;;;;;;;37.30;19.17;;;;;;;23.54;61.98;99691.91;4958567;29;20026;-85
2022/07/09 08:25:18;;;;;;;45.90;21.98;;;;;;;23.54;61.59;99692.72;4946422;28;20043;-83
2022/07/09 08:27:44;;;;;;;32.72;16.60;;;;;;;23.55;61.81;99699.91;4921398;29;20084;-81
2022/07/09 08:30:10;;;;;;;41.42;19.17;;;;;;;23.56;60.48;99709.06;4944686;28;20051;-82
2022/07/09 08:32:38;;;;;;;47.22;18.63;;;;;;;23.39;61.89;99703.00;4958240;28;20043;-83
2022/07/09 08:35:08;;;;;;;38.20;20.25;;;;;;;23.53;62.57;99732.97;4947223;28;20038;-83
2022/07/09 08:37:34;;;;;;;38.95;21.45;;;;;;;23.56;62.75;99707.06;4952702;28;20043;-83
2022/07/09 08:40:07;;;;;;;37.30;19.67;;;;;;;23.71;62.02;99730.31;4956405;28;20043;-84
2022/07/09 08:42:34;;;;;;;34.72;17.83;;;;;;;23.71;61.36;99713.56;4950821;29;20121;-84
2022/07/09 08:45:02;;;;;;;40.55;17.33;;;;;;;23.76;62.09;99706.78;4963246;28;20465;-84
2022/07/09 08:47:29;;;;;;;35.42;16.65;;;;;;;23.86;61.18;99723.59;4949225;28;20043;-82
2022/07/09 08:49:59;;;;;;;27.23;15.77;;;;;;;23.88;58.90;99698.06;4946010;28;20051;-93
2022/07/09 08:52:26;;;;;;;33.60;13.63;;;;;;;24.12;58.09;99730.84;4938430;29;20047;-84
2022/07/09 08:54:53;;;;;;;25.15;13.10;;;;;;;24.02;57.32;99695.31;4940349;29;20489;-82
2022/07/09 08:57:20;;;;;;;28.15;14.00;;;;;;;24.14;58.50;99708.94;4952682;28;20090;-85
2022/07/09 08:59:46;;;;;;;27.25;14.30;;;;;;;24.19;57.15;99713.31;4929515;29;20105;-80
2022/07/09 09:02:13;;;;;;;35.72;15.55;;;;;;;24.07;56.61;99697.75;4943887;29;20043;-81
2022/07/09 09:04:41;;;;;;;24.25;14.10;;;;;;;23.98;55.86;99693.72;4950599;28;20048;-92
2022/07/09 09:07:17;;;;;;;28.40;14.25;;;;;;;24.08;57.39;99729.25;4949607;29;20051;-91
2022/07/09 09:09:45;;;;;;;37.10;16.25;;;;;;;24.02;56.90;99720.47;4931820;29;20040;-89
2022/07/09 09:12:12;;;;;;;39.00;16.92;;;;;;;23.81;57.33;99698.06;4942106;29;20097;-83
2022/07/09 09:14:39;;;;;;;34.63;16.55;;;;;;;23.90;57.98;99709.63;4949697;29;20114;-82
2022/07/09 09:17:09;;;;;;;36.35;15.80;;;;;;;23.97;59.01;99712.44;4936502;29;20047;-81
2022/07/09 09:19:39;;;;;;;34.38;15.30;;;;;;;23.88;57.95;99695.28;4963688;28;20046;-95
2022/07/09 09:22:09;;;;;;;29.48;15.77;;;;;;;23.80;57.34;99674.91;4974294;28;20047;-96
2022/07/09 09:24:35;;;;;;;34.83;15.30;;;;;;;23.66;56.72;99670.03;4961329;28;20038;-96
2022/07/09 09:27:02;;;;;;;33.50;16.17;;;;;;;23.65;58.85;99667.66;4950172;28;20445;-80
2022/07/09 09:29:29;;;;;;;35.05;16.70;;;;;;;23.73;61.30;99669.28;4968380;28;20142;-81
2022/07/09 09:31:55;;;;;;;41.60;16.70;;;;;;;23.69;60.27;99657.31;4966147;28;20046;-80
2022/07/09 09:34:22;;;;;;;44.60;20.08;;;;;;;23.70;59.17;99658.91;4959346;28;20043;-84
2022/07/09 09:36:51;;;;;;;88.43;24.60;;;;;;;23.49;57.46;99628.13;4958103;28;20042;-86
2022/07/09 09:39:26;;;;;;;49.78;19.75;;;;;;;23.48;58.01;99632.06;4967960;28;20515;-80
2022/07/09 09:42:00;;;;;;;99.13;23.52;;;;;;;23.35;58.47;99618.50;4957713;29;20042;-82
2022/07/09 09:44:37;;;;;;;99.13;25.45;;;;;;;23.36;60.17;99603.34;4943712;29;20043;-82
2022/07/09 09:47:05;;;;;;;71.72;23.10;;;;;;;23.34;60.05;99608.50;4959346;29;20194;-84
2022/07/09 09:49:31;;;;;;;59.30;24.00;;;;;;;23.38;61.74;99606.56;4957995;29;20045;-83
2022/07/09 09:52:04;;;;;;;57.03;22.38;;;;;;;23.22;63.03;99567.03;4956987;29;20226;-84
2022/07/09 09:54:38;;;;;;;61.88;24.55;;;;;;;23.36;62.13;99591.41;4965912;28;20050;-88
2022/07/09 09:57:09;;;;;;;64.68;23.38;;;;;;;23.41;62.76;99610.53;4968968;28;20049;-81
2022/07/09 09:59:40;;;;;;;55.50;22.02;;;;;;;23.37;60.16;99618.09;4956907;28;20142;-80
2022/07/09 10:02:09;;;;;;;54.38;24.30;;;;;;;23.27;62.89;99624.41;4955635;28;20035;-81
2022/07/09 10:04:37;;;;;;;49.60;23.88;;;;;;;23.09;62.08;99605.63;4950560;29;20047;-81
2022/07/09 10:07:07;;;;;;;50.15;23.08;;;;;;;23.33;62.46;99625.66;4956727;29;20121;-92
2022/07/09 10:09:33;;;;;;;61.55;24.83;;;;;;;23.34;60.94;99628.03;4969509;28;20038;-81
2022/07/09 10:11:59;;;;;;;53.42;24.50;;;;;;;23.25;62.63;99616.47;4960095;28;20039;-96
2022/07/09 10:14:29;;;;;;;55.95;24.42;;;;;;;23.38;62.21;99640.03;4956825;29;20605;-81
2022/07/09 10:16:56;;;;;;;55.35;23.10;;;;;;;23.28;60.85;99618.47;4957542;29;20051;-82
2022/07/09 10:19:28;;;;;;;51.33;23.63;;;;;;;23.54;61.82;99624.94;4940522;29;20046;-79
2022/07/09 10:22:07;;;;;;;52.30;22.08;;;;;;;23.69;59.47;99626.63;4944214;29;20038;-80
2022/07/09 10:24:46;;;;;;;34.58;17.13;;;;;;;23.84;57.07;99622.69;4935466;29;20079;-93
2022/07/09 10:27:27;;;;;;;41.17;15.00;;;;;;;23.90;54.44;99618.28;4951130;29;20071;-89
2022/07/09 10:30:02;;;;;;;43.10;16.17;;;;;;;24.03;55.50;99615.91;4957343;28;20046;-81
2022/07/09 10:32:31;;;;;;;42.38;14.98;;;;;;;24.07;54.96;99610.34;4966864;29;20043;-81
2022/07/09 10:35:03;;;;;;;40.80;14.88;;;;;;;24.02;54.50;99589.19;4963074;29;20121;-81
2022/07/09 10:37:44;;;;;;;57.75;15.07;;;;;;;24.32;55.29;99596.41;4962326;29;20039;-81
2022/07/09 10:40:15;;;;;;;31.58;13.80;;;;;;;24.47;55.05;99588.81;4944158;29;20035;-82
2022/07/09 10:42:43;;;;;;;38.47;13.23;;;;;;;24.53;53.96;99576.84;4956098;29;20047;-82
2022/07/09 10:45:36;;;;;;;33.72;12.23;;;;;;;24.61;53.11;99561.66;4955262;29;20047;-80
2022/07/09 10:48:06;;;;;;;24.55;11.10;;;;;;;24.80;51.74;99581.97;4958363;29;20049;-83
2022/07/09 10:50:36;;;;;;;30.42;12.00;;;;;;;24.85;50.85;99565.59;4955091;29;20039;-83
2022/07/09 10:53:03;;;;;;;43.42;14.05;;;;;;;24.84;52.14;99563.22;4956192;29;20074;-83
2022/07/09 10:55:30;;;;;;;33.95;13.50;;;;;;;24.86;51.20;99549.63;4939050;29;20552;-82
2022/07/09 10:57:57;;;;;;;37.33;13.77;;;;;;;24.88;50.62;99541.63;4955714;29;20042;-83
2022/07/09 11:00:29;;;;;;;34.15;14.13;;;;;;;24.87;51.83;99517.66;4940604;29;20042;-81
2022/07/09 11:03:04;;;;;;;34.90;13.98;;;;;;;25.17;51.70;99528.38;4959056;29;20039;-81
2022/07/09 11:05:43;;;;;;;46.40;14.77;;;;;;;25.32;51.86;99523.47;4964731;29;20047;-82
2022/07/09 11:08:14;;;;;;;37.08;15.65;;;;;;;25.45;51.38;99521.03;4959121;29;20086;-82
2022/07/09 11:10:40;;;;;;;31.55;14.32;;;;;;;25.49;51.64;99511.38;4967160;29;20015;-81
2022/07/09 11:13:09;;;;;;;31.65;13.95;;;;;;;25.42;50.16;99511.44;4956022;28;20413;-83
2022/07/09 11:15:37;;;;;;;110.32;21.30;;;;;;;25.46;51.33;99505.81;4939239;29;20047;-81
2022/07/09 11:18:08;;;;;;;71.00;17.17;;;;;;;25.52;52.07;99493.78;4958611;29;20042;-81
2022/07/09 11:20:43;;;;;;;43.95;15.55;;;;;;;25.40;52.60;99473.88;4960674;28;20070;-81
2022/07/09 11:23:15;;;;;;;137.80;23.48;;;;;;;25.58;50.70;99485.75;4956298;29;20040;-81